sensor_id;sensor_type;location;lat;lon;timestamp;pressure;altitude;pressure_sealevel;temperature;humidity
59063;BME280;44851;45.648;9.004;2024-02-15T00:00:13;99812.56;;;7.49;60.45
59063;BME280;44851;45.648;9.004;2024-02-15T00:02:40;99812.56;;;7.49;60.57
59063;BME280;44851;45.648;9.004;2024-02-15T00:05:10;99811.50;;;7.39;61.12
59063;BME280;44851;45.648;9.004;2024-02-15T00:07:35;99820.38;;;7.35;61.29
59063;BME280;44851;45.648;9.004;2024-02-15T00:10:00;99817.38;;;7.28;61.44
59063;BME280;44851;45.648;9.004;2024-02-15T00:12:26;99817.06;;;7.33;61.54
59063;BME280;44851;45.648;9.004;2024-02-15T00:14:51;99821.00;;;7.26;61.78
59063;BME280;44851;45.648;9.004;2024-02-15T00:17:16;99810.41;;;7.29;61.89
59063;BME280;44851;45.648;9.004;2024-02-15T00:19:43;99816.25;;;7.32;61.71
59063;BME280;44851;45.648;9.004;2024-02-15T00:22:08;99812.88;;;7.17;62.55
59063;BME280;44851;45.648;9.004;2024-02-15T00:24:36;99809.59;;;7.28;61.99
59063;BME280;44851;45.648;9.004;2024-02-15T00:27:02;99809.88;;;7.24;62.17
59063;BME280;44851;45.648;9.004;2024-02-15T00:29:28;99801.03;;;7.13;61.91
59063;BME280;44851;45.648;9.004;2024-02-15T00:31:54;99802.16;;;7.09;62.27
59063;BME280;44851;45.648;9.004;2024-02-15T00:34:20;99806.41;;;7.10;62.49
59063;BME280;44851;45.648;9.004;2024-02-15T00:36:46;99806.56;;;7.21;62.14
59063;BME280;44851;45.648;9.004;2024-02-15T00:39:11;99808.13;;;7.24;62.06
59063;BME280;44851;45.648;9.004;2024-02-15T00:41:38;99803.06;;;7.08;62.09
59063;BME280;44851;45.648;9.004;2024-02-15T00:44:08;99804.91;;;7.20;61.89
59063;BME280;44851;45.648;9.004;2024-02-15T00:46:33;99799.03;;;7.04;61.97
59063;BME280;44851;45.648;9.004;2024-02-15T00:48:59;99801.81;;;7.01;61.98
59063;BME280;44851;45.648;9.004;2024-02-15T00:51:24;99797.78;;;6.83;62.38
59063;BME280;44851;45.648;9.004;2024-02-15T00:53:50;99797.03;;;6.95;62.69
59063;BME280;44851;45.648;9.004;2024-02-15T00:56:15;99794.44;;;6.95;63.12
59063;BME280;44851;45.648;9.004;2024-02-15T00:58:41;99795.78;;;7.01;62.71
59063;BME280;44851;45.648;9.004;2024-02-15T01:01:06;99798.03;;;6.92;62.99
59063;BME280;44851;45.648;9.004;2024-02-15T01:03:31;99796.09;;;6.82;63.38
59063;BME280;44851;45.648;9.004;2024-02-15T01:05:56;99792.63;;;6.83;63.09
59063;BME280;44851;45.648;9.004;2024-02-15T01:08:22;99788.97;;;6.85;63.00
59063;BME280;44851;45.648;9.004;2024-02-15T01:10:47;99796.31;;;6.79;63.08
59063;BME280;44851;45.648;9.004;2024-02-15T01:13:13;99799.28;;;6.73;63.49
59063;BME280;44851;45.648;9.004;2024-02-15T01:15:38;99786.59;;;6.82;63.26
59063;BME280;44851;45.648;9.004;2024-02-15T01:18:06;99791.69;;;6.84;62.62
59063;BME280;44851;45.648;9.004;2024-02-15T01:20:31;99787.78;;;6.77;62.89
59063;BME280;44851;45.648;9.004;2024-02-15T01:22:57;99791.56;;;6.85;62.91
59063;BME280;44851;45.648;9.004;2024-02-15T01:25:22;99781.59;;;6.79;62.70
59063;BME280;44851;45.648;9.004;2024-02-15T01:27:47;99795.50;;;6.64;62.36
59063;BME280;44851;45.648;9.004;2024-02-15T01:30:13;99785.25;;;6.62;62.44
59063;BME280;44851;45.648;9.004;2024-02-15T01:32:39;99783.03;;;6.56;62.48
59063;BME280;44851;45.648;9.004;2024-02-15T01:35:07;99786.91;;;6.63;62.64
59063;BME280;44851;45.648;9.004;2024-02-15T01:37:33;99781.28;;;6.57;62.39
59063;BME280;44851;45.648;9.004;2024-02-15T01:39:58;99774.50;;;6.54;62.00
59063;BME280;44851;45.648;9.004;2024-02-15T01:42:23;99775.28;;;6.56;62.46
59063;BME280;44851;45.648;9.004;2024-02-15T01:44:49;99775.28;;;6.56;62.36
59063;BME280;44851;45.648;9.004;2024-02-15T01:47:16;99777.09;;;6.54;62.35
59063;BME280;44851;45.648;9.004;2024-02-15T01:49:42;99775.28;;;6.56;62.80
59063;BME280;44851;45.648;9.004;2024-02-15T01:52:09;99781.84;;;6.48;63.54
59063;BME280;44851;45.648;9.004;2024-02-15T01:54:35;99770.09;;;6.56;63.08
59063;BME280;44851;45.648;9.004;2024-02-15T01:57:04;99768.88;;;6.48;62.83
59063;BME280;44851;45.648;9.004;2024-02-15T01:59:30;99769.16;;;6.43;63.47
59063;BME280;44851;45.648;9.004;2024-02-15T02:01:56;99772.50;;;6.45;63.19
59063;BME280;44851;45.648;9.004;2024-02-15T02:04:21;99765.63;;;6.44;62.24
59063;BME280;44851;45.648;9.004;2024-02-15T02:06:46;99761.41;;;6.29;62.99
59063;BME280;44851;45.648;9.004;2024-02-15T02:09:12;99767.59;;;6.26;63.69
59063;BME280;44851;45.648;9.004;2024-02-15T02:11:45;99762.16;;;6.45;63.18
59063;BME280;44851;45.648;9.004;2024-02-15T02:14:11;99763.81;;;6.32;63.09
59063;BME280;44851;45.648;9.004;2024-02-15T02:16:37;99761.06;;;6.35;62.96
59063;BME280;44851;45.648;9.004;2024-02-15T02:19:04;99765.41;;;6.34;62.86
59063;BME280;44851;45.648;9.004;2024-02-15T02:21:34;99754.00;;;6.37;62.63
59063;BME280;44851;45.648;9.004;2024-02-15T02:24:02;99753.25;;;6.49;62.54
59063;BME280;44851;45.648;9.004;2024-02-15T02:26:33;99747.50;;;6.58;62.26
59063;BME280;44851;45.648;9.004;2024-02-15T02:28:58;99743.97;;;6.59;62.02
59063;BME280;44851;45.648;9.004;2024-02-15T02:31:24;99739.00;;;6.56;61.60
59063;BME280;44851;45.648;9.004;2024-02-15T02:33:52;99743.34;;;6.56;61.84
59063;BME280;44851;45.648;9.004;2024-02-15T02:36:18;99743.81;;;6.48;61.97
59063;BME280;44851;45.648;9.004;2024-02-15T02:38:44;99744.19;;;6.42;62.15
59063;BME280;44851;45.648;9.004;2024-02-15T02:41:15;99747.56;;;6.30;62.26
59063;BME280;44851;45.648;9.004;2024-02-15T02:43:40;99750.13;;;6.15;62.45
59063;BME280;44851;45.648;9.004;2024-02-15T02:46:06;99741.44;;;6.16;62.48
59063;BME280;44851;45.648;9.004;2024-02-15T02:48:32;99745.34;;;6.09;62.33
59063;BME280;44851;45.648;9.004;2024-02-15T02:50:57;99745.72;;;6.03;61.99
59063;BME280;44851;45.648;9.004;2024-02-15T02:53:23;99744.06;;;6.02;61.99
59063;BME280;44851;45.648;9.004;2024-02-15T02:55:49;99738.69;;;6.05;62.28
59063;BME280;44851;45.648;9.004;2024-02-15T02:58:14;99737.38;;;5.98;61.82
59063;BME280;44851;45.648;9.004;2024-02-15T03:00:40;99743.84;;;5.91;62.98
59063;BME280;44851;45.648;9.004;2024-02-15T03:03:05;99736.28;;;5.88;62.59
59063;BME280;44851;45.648;9.004;2024-02-15T03:05:31;99732.28;;;5.82;62.66
59063;BME280;44851;45.648;9.004;2024-02-15T03:07:56;99731.81;;;5.76;62.54
59063;BME280;44851;45.648;9.004;2024-02-15T03:10:22;99730.00;;;5.92;63.04
59063;BME280;44851;45.648;9.004;2024-02-15T03:12:49;99728.69;;;5.99;62.34
59063;BME280;44851;45.648;9.004;2024-02-15T03:15:15;99730.72;;;5.94;62.26
59063;BME280;44851;45.648;9.004;2024-02-15T03:17:42;99727.03;;;5.98;62.64
59063;BME280;44851;45.648;9.004;2024-02-15T03:20:09;99726.00;;;6.01;62.44
59063;BME280;44851;45.648;9.004;2024-02-15T03:22:56;99731.84;;;6.04;61.77
59063;BME280;44851;45.648;9.004;2024-02-15T03:25:23;99726.56;;;6.06;62.14
59063;BME280;44851;45.648;9.004;2024-02-15T03:27:49;99727.03;;;5.98;62.14
59063;BME280;44851;45.648;9.004;2024-02-15T03:30:16;99728.63;;;5.86;61.98
59063;BME280;44851;45.648;9.004;2024-02-15T03:32:42;99734.03;;;5.96;62.39
59063;BME280;44851;45.648;9.004;2024-02-15T03:35:07;99735.59;;;5.84;62.14
59063;BME280;44851;45.648;9.004;2024-02-15T03:37:33;99731.44;;;5.82;62.53
59063;BME280;44851;45.648;9.004;2024-02-15T03:40:02;99732.63;;;5.76;62.91
59063;BME280;44851;45.648;9.004;2024-02-15T03:42:29;99735.50;;;5.72;63.25
59063;BME280;44851;45.648;9.004;2024-02-15T03:44:55;99741.78;;;5.82;62.75
59063;BME280;44851;45.648;9.004;2024-02-15T03:47:21;99742.16;;;5.76;62.55
59063;BME280;44851;45.648;9.004;2024-02-15T03:49:46;99737.16;;;5.73;63.01
59063;BME280;44851;45.648;9.004;2024-02-15T03:52:12;99734.63;;;5.87;62.90
59063;BME280;44851;45.648;9.004;2024-02-15T03:54:38;99736.06;;;5.77;63.02
59063;BME280;44851;45.648;9.004;2024-02-15T03:57:03;99739.00;;;5.71;63.23
59063;BME280;44851;45.648;9.004;2024-02-15T03:59:31;99735.50;;;5.72;62.49
59063;BME280;44851;45.648;9.004;2024-02-15T04:01:57;99740.53;;;5.59;62.98
59063;BME280;44851;45.648;9.004;2024-02-15T04:04:23;99742.16;;;5.76;62.52
59063;BME280;44851;45.648;9.004;2024-02-15T04:06:49;99736.75;;;5.50;62.64
59063;BME280;44851;45.648;9.004;2024-02-15T04:09:15;99741.00;;;5.51;63.32
59063;BME280;44851;45.648;9.004;2024-02-15T04:11:42;99745.59;;;5.46;63.02
59063;BME280;44851;45.648;9.004;2024-02-15T04:14:07;99745.13;;;5.40;63.00
59063;BME280;44851;45.648;9.004;2024-02-15T04:16:33;99740.94;;;5.37;62.92
59063;BME280;44851;45.648;9.004;2024-02-15T04:19:01;99743.53;;;5.37;63.02
59063;BME280;44851;45.648;9.004;2024-02-15T04:21:26;99745.47;;;5.33;63.09
59063;BME280;44851;45.648;9.004;2024-02-15T04:23:52;99748.13;;;5.32;63.09
59063;BME280;44851;45.648;9.004;2024-02-15T04:26:19;99745.41;;;5.19;63.19
59063;BME280;44851;45.648;9.004;2024-02-15T04:28:45;99741.13;;;5.34;62.80
59063;BME280;44851;45.648;9.004;2024-02-15T04:31:12;99744.81;;;5.30;63.02
59063;BME280;44851;45.648;9.004;2024-02-15T04:33:38;99749.56;;;5.22;63.02
59063;BME280;44851;45.648;9.004;2024-02-15T04:36:05;99742.34;;;5.13;63.17
59063;BME280;44851;45.648;9.004;2024-02-15T04:38:34;99737.81;;;5.16;63.62
59063;BME280;44851;45.648;9.004;2024-02-15T04:41:03;99740.84;;;5.08;63.29
59063;BME280;44851;45.648;9.004;2024-02-15T04:43:30;99744.53;;;5.04;63.12
59063;BME280;44851;45.648;9.004;2024-02-15T04:45:58;99730.69;;;5.05;63.47
59063;BME280;44851;45.648;9.004;2024-02-15T04:48:24;99733.19;;;5.07;63.82
59063;BME280;44851;45.648;9.004;2024-02-15T04:50:50;99735.28;;;5.00;63.40
59063;BME280;44851;45.648;9.004;2024-02-15T04:53:16;99735.03;;;4.89;63.53
59063;BME280;44851;45.648;9.004;2024-02-15T04:55:42;99734.13;;;4.90;63.72
59063;BME280;44851;45.648;9.004;2024-02-15T04:58:07;99732.47;;;4.89;63.74
59063;BME280;44851;45.648;9.004;2024-02-15T05:00:35;99736.16;;;4.85;63.99
59063;BME280;44851;45.648;9.004;2024-02-15T05:03:01;99742.22;;;4.84;63.94
59063;BME280;44851;45.648;9.004;2024-02-15T05:05:27;99738.75;;;4.85;63.99
59063;BME280;44851;45.648;9.004;2024-02-15T05:07:54;99735.63;;;4.94;64.18
59063;BME280;44851;45.648;9.004;2024-02-15T05:10:19;99733.38;;;4.88;63.81
59063;BME280;44851;45.648;9.004;2024-02-15T05:12:45;99744.13;;;4.96;63.91
59063;BME280;44851;45.648;9.004;2024-02-15T05:15:14;99742.31;;;4.82;64.28
59063;BME280;44851;45.648;9.004;2024-02-15T05:17:42;99740.91;;;4.77;63.93
59063;BME280;44851;45.648;9.004;2024-02-15T05:20:11;99738.47;;;4.74;63.88
59063;BME280;44851;45.648;9.004;2024-02-15T05:22:39;99739.47;;;4.71;64.23
59063;BME280;44851;45.648;9.004;2024-02-15T05:25:06;99740.91;;;4.77;64.11
59063;BME280;44851;45.648;9.004;2024-02-15T05:27:33;99748.22;;;4.69;64.36
59063;BME280;44851;45.648;9.004;2024-02-15T05:29:58;99741.13;;;4.72;64.37
59063;BME280;44851;45.648;9.004;2024-02-15T05:32:24;99743.56;;;4.75;63.78
59063;BME280;44851;45.648;9.004;2024-02-15T05:34:51;99733.81;;;4.65;64.06
59063;BME280;44851;45.648;9.004;2024-02-15T05:37:16;99738.31;;;4.61;64.32
59063;BME280;44851;45.648;9.004;2024-02-15T05:39:42;99734.81;;;4.62;64.82
59063;BME280;44851;45.648;9.004;2024-02-15T05:42:07;99739.56;;;4.54;64.36
59063;BME280;44851;45.648;9.004;2024-02-15T05:44:34;99730.41;;;4.48;65.16
59063;BME280;44851;45.648;9.004;2024-02-15T05:47:00;99734.81;;;4.46;65.29
59063;BME280;44851;45.648;9.004;2024-02-15T05:49:25;99729.72;;;4.45;65.17
59063;BME280;44851;45.648;9.004;2024-02-15T05:51:51;99736.41;;;4.49;65.09
59063;BME280;44851;45.648;9.004;2024-02-15T05:54:18;99736.06;;;4.55;65.43
59063;BME280;44851;45.648;9.004;2024-02-15T05:56:43;99739.88;;;4.64;65.30
59063;BME280;44851;45.648;9.004;2024-02-15T05:59:09;99734.72;;;4.64;65.09
59063;BME280;44851;45.648;9.004;2024-02-15T06:01:39;99739.72;;;4.67;64.79
59063;BME280;44851;45.648;9.004;2024-02-15T06:04:06;99734.56;;;4.67;65.10
59063;BME280;44851;45.648;9.004;2024-02-15T06:06:34;99735.06;;;4.57;65.61
59063;BME280;44851;45.648;9.004;2024-02-15T06:08:59;99739.56;;;4.70;65.15
59063;BME280;44851;45.648;9.004;2024-02-15T06:11:25;99737.16;;;4.67;65.13
59063;BME280;44851;45.648;9.004;2024-02-15T06:13:51;99745.03;;;4.64;65.24
59063;BME280;44851;45.648;9.004;2024-02-15T06:16:16;99741.91;;;4.58;65.34
59063;BME280;44851;45.648;9.004;2024-02-15T06:18:42;99739.56;;;4.38;65.52
59063;BME280;44851;45.648;9.004;2024-02-15T06:21:08;99743.47;;;4.45;65.43
59063;BME280;44851;45.648;9.004;2024-02-15T06:23:34;99741.91;;;4.43;66.05
59063;BME280;44851;45.648;9.004;2024-02-15T06:26:01;99749.66;;;4.58;65.71
59063;BME280;44851;45.648;9.004;2024-02-15T06:28:27;99747.38;;;4.52;66.16
59063;BME280;44851;45.648;9.004;2024-02-15T06:31:11;99753.13;;;4.57;66.08
59063;BME280;44851;45.648;9.004;2024-02-15T06:33:55;99752.38;;;4.55;65.37
59063;BME280;44851;45.648;9.004;2024-02-15T06:37:00;99752.53;;;4.37;64.84
59063;BME280;44851;45.648;9.004;2024-02-15T06:39:44;99754.72;;;4.44;66.25
59063;BME280;44851;45.648;9.004;2024-02-15T06:42:15;99761.06;;;4.54;66.54
59063;BME280;44851;45.648;9.004;2024-02-15T06:44:45;99757.88;;;4.49;66.05
59063;BME280;44851;45.648;9.004;2024-02-15T06:47:12;99768.38;;;4.46;66.29
59063;BME280;44851;45.648;9.004;2024-02-15T06:49:38;99759.69;;;4.47;66.22
59063;BME280;44851;45.648;9.004;2024-02-15T06:52:09;99763.03;;;4.49;66.59
59063;BME280;44851;45.648;9.004;2024-02-15T06:54:37;99765.53;;;4.67;66.99
59063;BME280;44851;45.648;9.004;2024-02-15T06:57:03;99765.22;;;4.73;66.41
59063;BME280;44851;45.648;9.004;2024-02-15T06:59:30;99764.56;;;4.85;66.85
59063;BME280;44851;45.648;9.004;2024-02-15T07:01:57;99764.81;;;4.96;66.46
59063;BME280;44851;45.648;9.004;2024-02-15T07:04:23;99761.88;;;5.02;66.90
59063;BME280;44851;45.648;9.004;2024-02-15T07:06:51;99761.69;;;5.05;66.58
59063;BME280;44851;45.648;9.004;2024-02-15T07:09:17;99763.03;;;5.13;66.25
59063;BME280;44851;45.648;9.004;2024-02-15T07:11:45;99761.53;;;5.08;66.22
59063;BME280;44851;45.648;9.004;2024-02-15T07:14:12;99765.03;;;5.07;66.53
59063;BME280;44851;45.648;9.004;2024-02-15T07:16:38;99772.66;;;5.25;66.36
59063;BME280;44851;45.648;9.004;2024-02-15T07:19:03;99767.16;;;5.31;66.26
59063;BME280;44851;45.648;9.004;2024-02-15T07:21:28;99773.59;;;5.24;65.53
59063;BME280;44851;45.648;9.004;2024-02-15T07:23:55;99779.47;;;5.42;66.27
59063;BME280;44851;45.648;9.004;2024-02-15T07:26:21;99766.53;;;5.42;66.08
59063;BME280;44851;45.648;9.004;2024-02-15T07:28:50;99766.13;;;5.49;65.94
59063;BME280;44851;45.648;9.004;2024-02-15T07:31:17;99773.56;;;5.54;66.29
59063;BME280;44851;45.648;9.004;2024-02-15T07:33:43;99775.75;;;5.61;66.63
59063;BME280;44851;45.648;9.004;2024-02-15T07:36:08;99767.78;;;5.64;65.90
59063;BME280;44851;45.648;9.004;2024-02-15T07:38:33;99769.00;;;5.73;65.85
59063;BME280;44851;45.648;9.004;2024-02-15T07:40:59;99773.34;;;5.73;65.01
59063;BME280;44851;45.648;9.004;2024-02-15T07:43:25;99769.81;;;5.89;66.02
59063;BME280;44851;45.648;9.004;2024-02-15T07:45:51;99772.28;;;5.91;64.61
59063;BME280;44851;45.648;9.004;2024-02-15T07:48:17;99777.13;;;5.97;65.24
59063;BME280;44851;45.648;9.004;2024-02-15T07:50:43;99770.47;;;5.93;64.78
59063;BME280;44851;45.648;9.004;2024-02-15T07:53:11;99769.72;;;6.05;64.46
59063;BME280;44851;45.648;9.004;2024-02-15T07:55:37;99773.81;;;6.09;65.62
59063;BME280;44851;45.648;9.004;2024-02-15T07:58:03;99765.84;;;6.12;65.59
59063;BME280;44851;45.648;9.004;2024-02-15T08:00:30;99767.53;;;6.13;65.55
59063;BME280;44851;45.648;9.004;2024-02-15T08:02:55;99770.75;;;6.31;66.89
59063;BME280;44851;45.648;9.004;2024-02-15T08:05:22;99769.38;;;6.40;67.10
59063;BME280;44851;45.648;9.004;2024-02-15T08:07:48;99767.13;;;6.48;66.67
59063;BME280;44851;45.648;9.004;2024-02-15T08:10:13;99763.44;;;6.52;66.73
59063;BME280;44851;45.648;9.004;2024-02-15T08:12:40;99764.69;;;6.59;66.59
59063;BME280;44851;45.648;9.004;2024-02-15T08:15:06;99763.91;;;6.86;66.35
59063;BME280;44851;45.648;9.004;2024-02-15T08:17:40;99761.94;;;7.16;66.25
59063;BME280;44851;45.648;9.004;2024-02-15T08:20:07;99762.09;;;7.40;65.42
59063;BME280;44851;45.648;9.004;2024-02-15T08:22:34;99755.72;;;7.59;63.98
59063;BME280;44851;45.648;9.004;2024-02-15T08:24:59;99754.00;;;7.97;64.59
59063;BME280;44851;45.648;9.004;2024-02-15T08:31:39;99755.97;;;8.19;61.85
59063;BME280;44851;45.648;9.004;2024-02-15T08:40:16;99755.25;;;8.67;61.75
59063;BME280;44851;45.648;9.004;2024-02-15T08:42:44;99754.50;;;9.01;62.18
59063;BME280;44851;45.648;9.004;2024-02-15T08:45:28;99751.25;;;9.35;60.25
59063;BME280;44851;45.648;9.004;2024-02-15T08:48:32;99758.88;;;9.49;58.24
59063;BME280;44851;45.648;9.004;2024-02-15T08:51:34;99751.69;;;9.75;57.66
59063;BME280;44851;45.648;9.004;2024-02-15T08:54:11;99743.81;;;10.21;56.38
59063;BME280;44851;45.648;9.004;2024-02-15T08:56:57;99749.47;;;10.49;55.08
59063;BME280;44851;45.648;9.004;2024-02-15T08:59:23;99743.38;;;10.71;54.80
59063;BME280;44851;45.648;9.004;2024-02-15T09:01:50;99746.09;;;10.92;54.42
59063;BME280;44851;45.648;9.004;2024-02-15T09:04:17;99732.03;;;10.83;53.21
59063;BME280;44851;45.648;9.004;2024-02-15T09:06:43;99739.19;;;11.02;55.19
59063;BME280;44851;45.648;9.004;2024-02-15T09:09:08;99736.06;;;11.08;55.04
59063;BME280;44851;45.648;9.004;2024-02-15T09:12:00;99739.91;;;11.04;55.86
59063;BME280;44851;45.648;9.004;2024-02-15T09:14:48;99742.34;;;11.17;55.04
59063;BME280;44851;45.648;9.004;2024-02-15T09:17:17;99736.31;;;11.37;53.98
59063;BME280;44851;45.648;9.004;2024-02-15T09:20:11;99732.81;;;11.48;53.27
59063;BME280;44851;45.648;9.004;2024-02-15T09:42:17;99747.16;;;11.74;54.70
59063;BME280;44851;45.648;9.004;2024-02-15T09:51:44;99739.81;;;11.26;52.87
59063;BME280;44851;45.648;9.004;2024-02-15T10:05:35;99748.75;;;12.57;52.23
59063;BME280;44851;45.648;9.004;2024-02-15T10:08:02;99748.25;;;12.63;53.23
59063;BME280;44851;45.648;9.004;2024-02-15T10:10:30;99741.06;;;12.56;52.88
59063;BME280;44851;45.648;9.004;2024-02-15T10:13:06;99745.13;;;12.39;51.96
59063;BME280;44851;45.648;9.004;2024-02-15T10:15:39;99740.16;;;12.36;53.25
59063;BME280;44851;45.648;9.004;2024-02-15T10:18:09;99746.16;;;12.17;52.76
59063;BME280;44851;45.648;9.004;2024-02-15T10:20:39;99742.09;;;12.03;52.96
59063;BME280;44851;45.648;9.004;2024-02-15T10:23:13;99739.69;;;11.90;53.68
59063;BME280;44851;45.648;9.004;2024-02-15T10:25:43;99740.72;;;11.78;54.38
59063;BME280;44851;45.648;9.004;2024-02-15T10:28:13;99738.66;;;11.61;54.96
59063;BME280;44851;45.648;9.004;2024-02-15T10:30:43;99746.63;;;11.59;54.91
59063;BME280;44851;45.648;9.004;2024-02-15T10:33:17;99749.91;;;11.52;54.36
59063;BME280;44851;45.648;9.004;2024-02-15T10:35:45;99745.66;;;11.39;54.56
59063;BME280;44851;45.648;9.004;2024-02-15T10:38:11;99740.97;;;11.33;54.86
59063;BME280;44851;45.648;9.004;2024-02-15T10:40:38;99739.53;;;11.29;55.51
59063;BME280;44851;45.648;9.004;2024-02-15T10:43:06;99742.13;;;11.41;55.01
59063;BME280;44851;45.648;9.004;2024-02-15T10:45:34;99735.72;;;11.33;55.12
59063;BME280;44851;45.648;9.004;2024-02-15T10:48:04;99734.47;;;11.49;56.18
59063;BME280;44851;45.648;9.004;2024-02-15T10:50:30;99737.22;;;11.47;55.24
59063;BME280;44851;45.648;9.004;2024-02-15T10:52:57;99731.88;;;11.49;55.00
59063;BME280;44851;45.648;9.004;2024-02-15T10:55:48;99731.56;;;11.42;54.44
59063;BME280;44851;45.648;9.004;2024-02-15T10:58:19;99734.16;;;11.42;55.30
59063;BME280;44851;45.648;9.004;2024-02-15T11:00:49;99731.63;;;11.52;56.56
59063;BME280;44851;45.648;9.004;2024-02-15T11:03:26;99725.50;;;11.42;54.64
59063;BME280;44851;45.648;9.004;2024-02-15T11:05:58;99725.94;;;11.47;54.83
59063;BME280;44851;45.648;9.004;2024-02-15T11:08:25;99718.81;;;11.49;55.87
59063;BME280;44851;45.648;9.004;2024-02-15T11:10:53;99716.47;;;11.46;54.39
59063;BME280;44851;45.648;9.004;2024-02-15T11:13:20;99714.41;;;11.49;54.50
59063;BME280;44851;45.648;9.004;2024-02-15T11:15:46;99708.13;;;11.52;54.07
59063;BME280;44851;45.648;9.004;2024-02-15T11:18:41;99703.34;;;11.57;54.51
59063;BME280;44851;45.648;9.004;2024-02-15T11:21:54;99690.78;;;11.51;54.34
59063;BME280;44851;45.648;9.004;2024-02-15T11:24:30;99692.63;;;11.60;53.91
59063;BME280;44851;45.648;9.004;2024-02-15T11:26:58;99682.69;;;11.75;53.99
59063;BME280;44851;45.648;9.004;2024-02-15T11:29:55;99686.59;;;11.90;52.93
59063;BME280;44851;45.648;9.004;2024-02-15T11:35:09;99682.47;;;11.87;53.67
59063;BME280;44851;45.648;9.004;2024-02-15T11:40:59;99680.03;;;11.96;53.58
59063;BME280;44851;45.648;9.004;2024-02-15T11:46:08;99668.63;;;11.97;52.62
59063;BME280;44851;45.648;9.004;2024-02-15T11:48:38;99664.25;;;11.97;52.60
59063;BME280;44851;45.648;9.004;2024-02-15T11:51:07;99671.56;;;12.03;53.00
59063;BME280;44851;45.648;9.004;2024-02-15T11:53:36;99656.97;;;12.01;52.39
59063;BME280;44851;45.648;9.004;2024-02-15T11:56:02;99662.94;;;12.12;53.01
59063;BME280;44851;45.648;9.004;2024-02-15T11:58:32;99668.00;;;12.14;52.54
59063;BME280;44851;45.648;9.004;2024-02-15T12:01:11;99661.41;;;12.10;52.20
59063;BME280;44851;45.648;9.004;2024-02-15T12:03:55;99657.56;;;12.14;52.99
59063;BME280;44851;45.648;9.004;2024-02-15T12:06:39;99646.84;;;12.17;53.14
59063;BME280;44851;45.648;9.004;2024-02-15T12:09:23;99647.66;;;12.08;53.07
59063;BME280;44851;45.648;9.004;2024-02-15T12:12:09;99644.34;;;12.06;54.28
59063;BME280;44851;45.648;9.004;2024-02-15T12:15:03;99641.63;;;12.17;53.28
59063;BME280;44851;45.648;9.004;2024-02-15T12:17:47;99638.22;;;12.26;53.20
59063;BME280;44851;45.648;9.004;2024-02-15T12:20:32;99638.34;;;12.34;52.69
59063;BME280;44851;45.648;9.004;2024-02-15T12:22:58;99632.88;;;12.37;52.01
59063;BME280;44851;45.648;9.004;2024-02-15T12:25:26;99627.50;;;12.49;51.15
59063;BME280;44851;45.648;9.004;2024-02-15T12:27:56;99621.84;;;12.34;51.36
59063;BME280;44851;45.648;9.004;2024-02-15T12:30:22;99620.22;;;12.42;52.11
59063;BME280;44851;45.648;9.004;2024-02-15T12:32:51;99616.06;;;12.40;52.99
59063;BME280;44851;45.648;9.004;2024-02-15T12:35:21;99612.66;;;12.59;52.71
59063;BME280;44851;45.648;9.004;2024-02-15T12:38:03;99607.56;;;12.67;51.11
59063;BME280;44851;45.648;9.004;2024-02-15T12:40:37;99615.81;;;12.82;50.72
59063;BME280;44851;45.648;9.004;2024-02-15T12:43:06;99606.88;;;12.84;50.58
59063;BME280;44851;45.648;9.004;2024-02-15T12:45:48;99611.41;;;12.82;51.15
59063;BME280;44851;45.648;9.004;2024-02-15T12:48:13;99598.47;;;12.90;50.75
59063;BME280;44851;45.648;9.004;2024-02-15T12:50:40;99596.25;;;12.95;51.32
59063;BME280;44851;45.648;9.004;2024-02-15T12:53:06;99603.41;;;12.93;51.35
59063;BME280;44851;45.648;9.004;2024-02-15T12:55:34;99594.88;;;12.91;51.54
59063;BME280;44851;45.648;9.004;2024-02-15T12:58:04;99589.66;;;12.91;50.64
59063;BME280;44851;45.648;9.004;2024-02-15T13:00:33;99585.50;;;12.99;52.36
59063;BME280;44851;45.648;9.004;2024-02-15T13:03:05;99581.38;;;12.96;50.31
59063;BME280;44851;45.648;9.004;2024-02-15T13:05:34;99575.84;;;12.99;50.07
59063;BME280;44851;45.648;9.004;2024-02-15T13:08:01;99576.41;;;13.03;50.20
59063;BME280;44851;45.648;9.004;2024-02-15T13:10:28;99575.56;;;13.12;51.76
59063;BME280;44851;45.648;9.004;2024-02-15T13:12:55;99569.22;;;13.05;49.39
59063;BME280;44851;45.648;9.004;2024-02-15T13:15:22;99567.97;;;13.09;48.82
59063;BME280;44851;45.648;9.004;2024-02-15T13:17:52;99558.59;;;13.26;50.43
59063;BME280;44851;45.648;9.004;2024-02-15T13:20:21;99566.44;;;13.35;49.44
59063;BME280;44851;45.648;9.004;2024-02-15T13:22:57;99558.16;;;13.40;50.35
59063;BME280;44851;45.648;9.004;2024-02-15T13:25:25;99560.63;;;13.41;49.44
59063;BME280;44851;45.648;9.004;2024-02-15T13:27:51;99553.63;;;13.32;48.87
59063;BME280;44851;45.648;9.004;2024-02-15T13:30:16;99547.13;;;13.36;49.49
59063;BME280;44851;45.648;9.004;2024-02-15T13:32:46;99542.88;;;13.35;49.16
59063;BME280;44851;45.648;9.004;2024-02-15T13:35:11;99551.69;;;13.34;48.10
59063;BME280;44851;45.648;9.004;2024-02-15T13:37:50;99543.28;;;13.31;48.37
59063;BME280;44851;45.648;9.004;2024-02-15T13:40:18;99541.25;;;13.25;48.28
59063;BME280;44851;45.648;9.004;2024-02-15T13:42:46;99537.63;;;13.35;49.83
59063;BME280;44851;45.648;9.004;2024-02-15T13:45:16;99534.47;;;13.32;47.54
59063;BME280;44851;45.648;9.004;2024-02-15T13:47:44;99535.25;;;13.42;46.15
59063;BME280;44851;45.648;9.004;2024-02-15T13:50:11;99532.50;;;13.43;47.64
59063;BME280;44851;45.648;9.004;2024-02-15T13:56:06;99528.13;;;13.34;45.37
59063;BME280;44851;45.648;9.004;2024-02-15T13:58:31;99529.78;;;13.35;45.52
59063;BME280;44851;45.648;9.004;2024-02-15T14:00:59;99529.88;;;13.43;47.33
59063;BME280;44851;45.648;9.004;2024-02-15T14:03:28;99534.53;;;13.50;46.22
59063;BME280;44851;45.648;9.004;2024-02-15T14:05:54;99520.47;;;13.51;47.02
59063;BME280;44851;45.648;9.004;2024-02-15T14:08:42;99522.63;;;13.37;46.41
59063;BME280;44851;45.648;9.004;2024-02-15T14:11:08;99523.94;;;13.41;47.17
59063;BME280;44851;45.648;9.004;2024-02-15T14:13:34;99513.28;;;13.25;47.53
59063;BME280;44851;45.648;9.004;2024-02-15T14:15:59;99510.69;;;13.15;47.57